createdAt,value
2017-01-26T00:00:07.458Z,-1.62
2017-01-26T00:01:08.014Z,-1.60
2017-01-26T00:02:07.567Z,-1.59
2017-01-26T00:03:08.087Z,-1.71
2017-01-26T00:04:07.569Z,-1.46
2017-01-26T00:05:08.397Z,-1.56
2017-01-26T00:06:08.109Z,-1.51
2017-01-26T00:07:07.612Z,-1.46
2017-01-26T00:08:07.262Z,-1.50
2017-01-26T00:09:07.793Z,-1.35
2017-01-26T00:10:07.671Z,-1.31
2017-01-26T00:11:07.178Z,-1.35
2017-01-26T00:12:07.913Z,-1.43
2017-01-26T00:13:07.467Z,-1.63
2017-01-26T00:14:08.017Z,-1.65
2017-01-26T00:15:07.481Z,-1.66
2017-01-26T00:16:08.153Z,-1.65
2017-01-26T00:17:08.080Z,-1.67
2017-01-26T00:18:07.505Z,-1.64
2017-01-26T00:19:08.024Z,-1.54
2017-01-26T00:20:07.559Z,-1.68
2017-01-26T00:21:08.110Z,-1.51
2017-01-26T00:22:07.680Z,-1.76
2017-01-26T00:23:07.221Z,-1.68
2017-01-26T00:24:07.939Z,-1.82
2017-01-26T00:25:07.689Z,-1.90
2017-01-26T00:26:07.202Z,-1.80
2017-01-26T00:27:07.756Z,-1.62
2017-01-26T00:28:07.219Z,-1.59
2017-01-26T00:29:07.791Z,-1.24
2017-01-26T00:30:07.335Z,-1.72
2017-01-26T00:31:07.903Z,-1.94
2017-01-26T00:32:07.462Z,-1.85
2017-01-26T00:33:08.092Z,-1.70
2017-01-26T00:34:07.644Z,-1.71
2017-01-26T00:35:07.443Z,-1.43
2017-01-26T00:36:08.279Z,-1.58
2017-01-26T00:37:08.089Z,-1.57
2017-01-26T00:38:07.571Z,-1.74
2017-01-26T00:39:08.104Z,-1.61
2017-01-26T00:40:07.674Z,-1.51
2017-01-26T00:41:17.102Z,-1.64
2017-01-26T00:42:07.632Z,-1.89
2017-01-26T00:43:07.115Z,-1.69
2017-01-26T00:44:07.638Z,-1.88
2017-01-26T00:45:07.464Z,-1.83
2017-01-26T00:46:08.069Z,-1.74
2017-01-26T00:47:07.564Z,-1.68
2017-01-26T00:48:08.089Z,-1.92
2017-01-26T00:49:07.760Z,-1.93
2017-01-26T00:50:07.226Z,-1.91
2017-01-26T00:51:07.623Z,-1.74
2017-01-26T00:52:07.380Z,-1.73
2017-01-26T00:53:07.934Z,-1.58
2017-01-26T00:54:07.516Z,-1.55
2017-01-26T00:55:07.974Z,-1.37
2017-01-26T00:56:07.443Z,-1.46
2017-01-26T00:57:07.984Z,-1.57
2017-01-26T00:58:07.434Z,-1.41
2017-01-26T00:59:07.977Z,-1.61
2017-01-26T01:00:07.407Z,-1.71
2017-01-26T01:01:07.918Z,-1.51
2017-01-26T01:02:07.396Z,-1.45
2017-01-26T01:03:07.869Z,-1.67
2017-01-26T01:04:07.224Z,-1.66
2017-01-26T01:05:07.572Z,-1.77
2017-01-26T01:06:08.150Z,-1.64
2017-01-26T01:07:07.383Z,-1.58
2017-01-26T01:08:08.096Z,-1.62
2017-01-26T01:09:07.821Z,-1.73
2017-01-26T01:10:07.313Z,-1.81
2017-01-26T01:11:07.954Z,-1.79
2017-01-26T01:12:07.457Z,-1.63
2017-01-26T01:13:07.366Z,-1.76
2017-01-26T01:14:07.875Z,-1.79
2017-01-26T01:15:07.534Z,-1.83
2017-01-26T01:16:08.054Z,-1.81
2017-01-26T01:17:08.169Z,-1.80
2017-01-26T01:18:07.756Z,-1.55
2017-01-26T01:19:07.368Z,-1.65
2017-01-26T01:20:07.779Z,-1.88
2017-01-26T01:21:07.454Z,-1.65
2017-01-26T01:22:08.029Z,-1.72
2017-01-26T01:23:07.665Z,-1.69
2017-01-26T01:24:07.166Z,-1.74
2017-01-26T01:25:07.625Z,-1.89
2017-01-26T01:26:07.094Z,-1.81
2017-01-26T01:27:07.837Z,-1.81
2017-01-26T01:28:07.325Z,-1.56
2017-01-26T01:29:07.888Z,-1.69
2017-01-26T01:30:07.679Z,-1.66
2017-01-26T01:31:07.229Z,-1.82
2017-01-26T01:32:07.907Z,-1.68
2017-01-26T01:33:07.678Z,-1.53
2017-01-26T01:34:07.125Z,-1.76
2017-01-26T01:35:07.660Z,-1.83
2017-01-26T01:36:07.144Z,-1.89
2017-01-26T01:37:07.653Z,-1.69
2017-01-26T01:38:08.343Z,-1.85
2017-01-26T01:39:07.990Z,-1.82
2017-01-26T01:40:07.813Z,-1.64
2017-01-26T01:41:07.620Z,-1.82
2017-01-26T01:42:07.409Z,-1.79
2017-01-26T01:43:08.175Z,-1.78
2017-01-26T01:44:07.610Z,-1.74
2017-01-26T01:45:07.546Z,-1.92
2017-01-26T01:46:08.089Z,-1.84
2017-01-26T01:47:07.558Z,-1.55
2017-01-26T01:48:08.054Z,-1.66
2017-01-26T01:49:07.586Z,-1.77
2017-01-26T01:50:07.252Z,-1.72
2017-01-26T01:51:07.883Z,-1.81
2017-01-26T01:52:07.647Z,-1.82
2017-01-26T01:53:07.408Z,-1.82
2017-01-26T01:54:07.887Z,-1.82
2017-01-26T01:55:07.453Z,-1.78
2017-01-26T01:56:08.063Z,-1.86
2017-01-26T01:57:07.466Z,-1.61
2017-01-26T01:58:08.344Z,-1.70
2017-01-26T01:59:07.879Z,-1.75
2017-01-26T02:00:07.932Z,-1.85
2017-01-26T02:01:07.729Z,-1.88
2017-01-26T02:02:07.322Z,-1.68
2017-01-26T02:03:08.002Z,-1.94
2017-01-26T02:04:07.876Z,-1.69
2017-01-26T02:05:07.440Z,-1.63
2017-01-26T02:06:07.977Z,-1.70
2017-01-26T02:07:07.761Z,-1.73
2017-01-26T02:08:07.308Z,-1.66
2017-01-26T02:09:07.912Z,-1.70
2017-01-26T02:10:07.410Z,-1.88
2017-01-26T02:11:07.921Z,-1.89
2017-01-26T02:12:07.516Z,-1.92
2017-01-26T02:13:07.464Z,-1.90
2017-01-26T02:14:08.314Z,-1.85
2017-01-26T02:15:07.846Z,-1.76
2017-01-26T02:16:07.322Z,-1.88
2017-01-26T02:17:07.921Z,-1.84
2017-01-26T02:18:07.355Z,-1.76
2017-01-26T02:19:07.906Z,-1.73
2017-01-26T02:20:07.854Z,-1.77
2017-01-26T02:21:07.704Z,-1.84
2017-01-26T02:22:07.544Z,-1.80
2017-01-26T02:23:08.176Z,-1.90
2017-01-26T02:24:07.935Z,-1.96
2017-01-26T02:25:07.797Z,-1.68
2017-01-26T02:26:07.254Z,-1.65
2017-01-26T02:27:07.721Z,-1.66
2017-01-26T02:28:07.133Z,-1.75
2017-01-26T02:29:07.688Z,-2.03
2017-01-26T02:30:07.221Z,-1.91
2017-01-26T02:31:07.768Z,-1.55
2017-01-26T02:32:07.464Z,-1.65
2017-01-26T02:33:08.236Z,-1.91
2017-01-26T02:34:07.776Z,-1.73
2017-01-26T02:35:07.292Z,-1.69
2017-01-26T02:36:07.956Z,-1.78
2017-01-26T02:37:07.506Z,-1.89
2017-01-26T02:38:08.067Z,-1.83
2017-01-26T02:39:07.624Z,-1.86
2017-01-26T02:40:07.036Z,-1.85
2017-01-26T02:41:08.049Z,-1.80
2017-01-26T02:42:07.658Z,-1.71
2017-01-26T02:43:07.169Z,-1.94
2017-01-26T02:44:07.720Z,-1.77
2017-01-26T02:45:07.222Z,-1.75
2017-01-26T02:46:07.807Z,-1.83
2017-01-26T02:47:07.374Z,-1.75
2017-01-26T02:48:07.910Z,-1.75
2017-01-26T02:49:07.436Z,-1.93
2017-01-26T02:50:08.068Z,-1.77
2017-01-26T02:51:07.505Z,-1.77
2017-01-26T02:52:08.034Z,-1.75
2017-01-26T02:53:07.643Z,-1.71
2017-01-26T02:54:07.121Z,-1.68
2017-01-26T02:55:07.850Z,-1.77
2017-01-26T02:56:07.406Z,-1.90
2017-01-26T02:57:08.009Z,-1.86
2017-01-26T02:58:07.845Z,-1.76
2017-01-26T02:59:07.285Z,-1.82
2017-01-26T03:00:07.926Z,-1.83
2017-01-26T03:01:07.530Z,-1.66
2017-01-26T03:02:08.105Z,-1.75
2017-01-26T03:03:07.918Z,-1.80
2017-01-26T03:04:07.488Z,-1.83
2017-01-26T03:05:07.123Z,-1.89
2017-01-26T03:06:07.685Z,-1.85
2017-01-26T03:07:07.150Z,-1.96
2017-01-26T03:08:07.986Z,-1.85
2017-01-26T03:09:07.878Z,-1.57
2017-01-26T03:10:07.390Z,-1.58
2017-01-26T03:11:07.815Z,-1.87
2017-01-26T03:12:08.080Z,-1.90
2017-01-26T03:13:07.527Z,-1.88
2017-01-26T03:14:08.072Z,-2.02
2017-01-26T03:15:07.529Z,-1.91
2017-01-26T03:16:08.098Z,-1.77
2017-01-26T03:17:07.753Z,-1.68
2017-01-26T03:18:07.230Z,-1.71
2017-01-26T03:19:07.727Z,-1.72
2017-01-26T03:20:07.256Z,-1.88
2017-01-26T03:21:07.737Z,-1.97
2017-01-26T03:22:07.324Z,-1.98
2017-01-26T03:23:07.904Z,-1.91
2017-01-26T03:24:07.413Z,-1.85
2017-01-26T03:25:07.923Z,-1.96
2017-01-26T03:26:07.394Z,-1.90
2017-01-26T03:27:08.052Z,-1.78
2017-01-26T03:28:07.550Z,-2.05
2017-01-26T03:29:08.057Z,-2.00
2017-01-26T03:30:07.569Z,-1.59
2017-01-26T03:31:07.403Z,-1.68
2017-01-26T03:32:07.971Z,-1.81
2017-01-26T03:33:07.522Z,-1.74
2017-01-26T03:34:08.091Z,-1.95
2017-01-26T03:35:07.768Z,-1.77
2017-01-26T03:36:07.612Z,-1.75
2017-01-26T03:37:07.221Z,-1.92
2017-01-26T03:38:07.789Z,-1.97
2017-01-26T03:39:07.319Z,-1.93
2017-01-26T03:40:08.206Z,-1.89
2017-01-26T03:41:07.761Z,-1.83
2017-01-26T03:42:07.286Z,-1.66
2017-01-26T03:43:07.831Z,-1.94
2017-01-26T03:44:07.387Z,-1.66
2017-01-26T03:45:07.934Z,-1.81
2017-01-26T03:46:07.470Z,-1.86
2017-01-26T03:47:07.565Z,-1.72
2017-01-26T03:48:08.405Z,-1.98
2017-01-26T03:49:07.957Z,-2.08
2017-01-26T03:50:07.504Z,-1.76
2017-01-26T03:51:08.066Z,-1.63
2017-01-26T03:52:07.595Z,-1.72
2017-01-26T03:53:07.154Z,-1.81
2017-01-26T03:54:07.648Z,-1.86
2017-01-26T03:55:07.102Z,-1.72
2017-01-26T03:56:07.586Z,-1.65
2017-01-26T03:57:07.440Z,-1.88
2017-01-26T03:58:08.239Z,-1.74
2017-01-26T03:59:07.869Z,-1.91
2017-01-26T04:00:08.267Z,-1.86
2017-01-26T04:01:07.854Z,-1.62
2017-01-26T04:02:07.309Z,-1.62
2017-01-26T04:03:07.836Z,-1.96
2017-01-26T04:04:07.344Z,-1.87
2017-01-26T04:05:07.887Z,-1.86
2017-01-26T04:06:07.609Z,-1.93
2017-01-26T04:07:07.189Z,-1.84
2017-01-26T04:08:07.733Z,-1.67
2017-01-26T04:09:07.539Z,-1.72
2017-01-26T04:10:08.090Z,-1.82
2017-01-26T04:11:07.609Z,-1.76
2017-01-26T04:12:07.029Z,-1.60
2017-01-26T04:13:07.779Z,-1.81
2017-01-26T04:14:07.238Z,-1.87
2017-01-26T04:15:07.694Z,-1.93
2017-01-26T04:16:07.270Z,-2.00
2017-01-26T04:17:07.978Z,-2.03
2017-01-26T04:18:07.489Z,-1.93
2017-01-26T04:19:07.997Z,-1.91
2017-01-26T04:20:07.563Z,-1.88
2017-01-26T04:21:08.149Z,-1.71
2017-01-26T04:22:07.695Z,-1.56
2017-01-26T04:23:07.229Z,-1.38
2017-01-26T04:24:07.826Z,-1.55
2017-01-26T04:25:07.347Z,-1.76
2017-01-26T04:26:07.810Z,-1.84
2017-01-26T04:27:07.379Z,-1.91
2017-01-26T04:29:17.628Z,-1.78
2017-01-26T04:30:07.303Z,-1.83
2017-01-26T04:31:07.903Z,-1.81
2017-01-26T04:32:07.836Z,-1.80
2017-01-26T04:33:08.736Z,-1.85
2017-01-26T04:36:07.931Z,-1.80
2017-01-26T04:37:09.300Z,-1.97
2017-01-26T04:38:07.793Z,-1.94
2017-01-26T04:39:12.353Z,-2.00
2017-01-26T04:41:07.743Z,-2.10
2017-01-26T04:42:07.700Z,-2.05
2017-01-26T04:43:07.262Z,-2.05
2017-01-26T04:44:07.751Z,-1.93
2017-01-26T04:45:07.533Z,-1.65
2017-01-26T04:46:07.969Z,-1.81
2017-01-26T04:47:07.783Z,-1.88
2017-01-26T04:48:07.773Z,-2.07
2017-01-26T04:49:07.348Z,-2.09
2017-01-26T04:50:08.974Z,-1.99
2017-01-26T04:51:07.523Z,-2.01
2017-01-26T04:52:08.041Z,-1.90
2017-01-26T04:53:07.640Z,-2.03
2017-01-26T04:54:07.521Z,-2.01
2017-01-26T04:55:08.127Z,-1.89
2017-01-26T04:56:07.602Z,-1.84
2017-01-26T04:57:07.399Z,-1.84
2017-01-26T04:58:07.891Z,-2.01
2017-01-26T04:59:07.358Z,-1.85
2017-01-26T05:00:07.880Z,-2.07
2017-01-26T05:01:07.406Z,-2.00
2017-01-26T05:02:07.938Z,-1.81
2017-01-26T05:03:07.640Z,-1.82
2017-01-26T05:04:07.342Z,-1.78
2017-01-26T05:05:07.724Z,-1.59
2017-01-26T05:06:07.374Z,-1.59
2017-01-26T05:07:07.909Z,-1.74
2017-01-26T05:08:07.361Z,-1.67
2017-01-26T05:09:07.875Z,-1.49
2017-01-26T05:10:07.527Z,-1.93
2017-01-26T05:11:07.971Z,-1.83
2017-01-26T05:12:07.499Z,-1.67
2017-01-26T05:13:08.006Z,-1.81
2017-01-26T05:14:07.514Z,-1.66
2017-01-26T05:15:08.287Z,-1.81
2017-01-26T05:16:07.883Z,-2.10
2017-01-26T05:17:07.580Z,-2.10
2017-01-26T05:18:08.083Z,-1.99
2017-01-26T05:19:07.651Z,-1.82
2017-01-26T05:20:07.435Z,-1.73
2017-01-26T05:21:07.888Z,-1.87
2017-01-26T05:22:07.531Z,-1.81
2017-01-26T05:23:08.084Z,-1.80
2017-01-26T05:24:07.749Z,-1.68
2017-01-26T05:25:09.945Z,-1.45
2017-01-26T05:26:07.118Z,-1.73
2017-01-26T05:27:07.594Z,-1.88
2017-01-26T05:28:07.944Z,-1.78
2017-01-26T05:29:07.503Z,-1.66
2017-01-26T05:30:08.145Z,-1.81
2017-01-26T05:31:07.642Z,-1.78
2017-01-26T05:32:07.482Z,-1.60
2017-01-26T05:33:07.981Z,-1.74
2017-01-26T05:34:07.501Z,-1.83
2017-01-26T05:35:08.078Z,-1.91
2017-01-26T05:36:07.593Z,-1.95
2017-01-26T05:37:07.206Z,-1.95
2017-01-26T05:38:07.613Z,-1.95
2017-01-26T05:39:07.217Z,-2.01
2017-01-26T05:40:07.933Z,-1.99
2017-01-26T05:41:07.582Z,-1.94
2017-01-26T05:42:07.118Z,-2.01
2017-01-26T05:43:07.663Z,-1.80
2017-01-26T05:44:07.192Z,-1.92
2017-01-26T05:45:07.759Z,-1.87
2017-01-26T05:46:07.298Z,-1.71
2017-01-26T05:47:07.925Z,-1.76
2017-01-26T05:48:07.642Z,-1.72
2017-01-26T05:49:07.500Z,-1.81
2017-01-26T05:50:08.006Z,-1.76
2017-01-26T05:51:07.434Z,-1.75
2017-01-26T05:52:08.030Z,-1.85
2017-01-26T05:53:07.601Z,-1.87
2017-01-26T05:54:07.186Z,-1.91
2017-01-26T05:55:07.614Z,-2.01
2017-01-26T05:56:07.751Z,-1.78
2017-01-26T05:57:07.321Z,-1.79
2017-01-26T05:58:07.864Z,-1.81
2017-01-26T05:59:07.378Z,-1.74
2017-01-26T06:00:07.907Z,-1.78
2017-01-26T06:01:07.731Z,-1.96
2017-01-26T06:02:07.216Z,-1.69
2017-01-26T06:03:07.773Z,-1.68
2017-01-26T06:04:07.299Z,-1.84
2017-01-26T06:05:07.837Z,-1.87
2017-01-26T06:06:07.319Z,-1.87
2017-01-26T06:07:07.864Z,-1.90
2017-01-26T06:08:07.380Z,-1.65
2017-01-26T06:09:07.933Z,-1.81
2017-01-26T06:10:07.413Z,-1.86
2017-01-26T06:11:07.934Z,-1.81
2017-01-26T06:12:07.472Z,-1.86
2017-01-26T06:13:08.025Z,-1.92
2017-01-26T06:14:07.557Z,-1.66
2017-01-26T06:15:08.078Z,-1.83
2017-01-26T06:16:07.594Z,-1.87
2017-01-26T06:17:07.256Z,-2.00
2017-01-26T06:18:07.781Z,-1.85
2017-01-26T06:19:07.304Z,-1.91
2017-01-26T06:20:07.937Z,-1.66
2017-01-26T06:21:07.836Z,-1.75
2017-01-26T06:22:07.469Z,-1.77
2017-01-26T06:23:08.220Z,-1.83
2017-01-26T06:24:07.780Z,-1.78
2017-01-26T06:25:07.318Z,-1.73
2017-01-26T06:26:07.854Z,-1.98
2017-01-26T06:27:07.411Z,-1.76
2017-01-26T06:28:07.899Z,-1.74
2017-01-26T06:29:07.716Z,-1.91
2017-01-26T06:30:07.236Z,-1.85
2017-01-26T06:31:07.827Z,-1.64
2017-01-26T06:32:07.726Z,-1.85
2017-01-26T06:33:07.322Z,-1.83
2017-01-26T06:34:07.825Z,-1.89
2017-01-26T06:35:07.592Z,-1.75
2017-01-26T06:36:07.400Z,-1.64
2017-01-26T06:37:08.031Z,-1.76
2017-01-26T06:38:07.794Z,-1.80
2017-01-26T06:39:08.281Z,-1.95
2017-01-26T06:40:09.022Z,-1.84
2017-01-26T06:41:34.768Z,-1.84
2017-01-26T06:42:07.748Z,-1.71
2017-01-26T06:43:07.389Z,-1.68
2017-01-26T06:44:07.943Z,-1.63
2017-01-26T06:45:07.613Z,-1.70
2017-01-26T06:46:07.456Z,-1.75
2017-01-26T06:47:08.064Z,-1.65
2017-01-26T06:48:07.704Z,-1.81
2017-01-26T06:49:07.212Z,-1.52
2017-01-26T06:50:07.804Z,-1.66
2017-01-26T06:51:07.436Z,-1.58
2017-01-26T06:52:08.014Z,-1.67
2017-01-26T06:53:07.893Z,-1.71
2017-01-26T06:54:07.377Z,-1.81
2017-01-26T06:55:07.913Z,-1.81
2017-01-26T06:56:07.508Z,-1.88
2017-01-26T06:57:07.983Z,-1.88
2017-01-26T06:58:07.507Z,-1.87
2017-01-26T06:59:07.912Z,-1.92
2017-01-26T07:00:07.407Z,-1.86
2017-01-26T07:01:08.203Z,-1.88
2017-01-26T07:02:07.901Z,-1.77
2017-01-26T07:03:07.406Z,-2.00
2017-01-26T07:04:07.929Z,-1.78
2017-01-26T07:05:07.607Z,-1.86
2017-01-26T07:06:07.437Z,-1.84
2017-01-26T07:07:08.005Z,-1.95
2017-01-26T07:08:07.580Z,-2.12
2017-01-26T07:09:08.074Z,-2.02
2017-01-26T07:10:07.688Z,-1.86
2017-01-26T07:11:07.164Z,-1.64
2017-01-26T07:12:07.807Z,-1.79
2017-01-26T07:13:07.390Z,-1.91
2017-01-26T07:14:07.904Z,-1.77
2017-01-26T07:15:07.730Z,-1.73
2017-01-26T07:16:07.596Z,-1.75
2017-01-26T07:17:07.555Z,-1.72
2017-01-26T07:18:08.092Z,-1.66
2017-01-26T07:19:07.685Z,-1.49
2017-01-26T07:20:07.400Z,-1.74
2017-01-26T07:21:07.834Z,-1.80
2017-01-26T07:22:07.836Z,-1.71
2017-01-26T07:23:07.701Z,-1.80
2017-01-26T07:24:08.214Z,-1.79
2017-01-26T07:25:07.768Z,-1.82
2017-01-26T07:26:07.542Z,-1.62
2017-01-26T07:27:08.108Z,-1.51
2017-01-26T07:28:07.784Z,-1.97
2017-01-26T07:29:07.389Z,-1.83
2017-01-26T07:30:07.927Z,-1.80
2017-01-26T07:31:31.207Z,-1.54
2017-01-26T07:32:08.584Z,-1.62
2017-01-26T07:33:07.498Z,-1.64
2017-01-26T07:34:08.067Z,-1.55
2017-01-26T07:35:07.778Z,-1.79
2017-01-26T07:36:07.691Z,-1.81
2017-01-26T07:37:08.153Z,-1.87
2017-01-26T07:38:08.647Z,-1.84
2017-01-26T07:39:08.163Z,-1.70
2017-01-26T07:40:07.692Z,-1.70
2017-01-26T07:41:07.481Z,-1.82
2017-01-26T07:42:08.060Z,-1.97
2017-01-26T07:43:07.538Z,-1.82
2017-01-26T07:44:08.071Z,-1.77
2017-01-26T07:45:07.939Z,-1.83
2017-01-26T07:46:07.569Z,-1.97
2017-01-26T07:47:08.140Z,-1.66
2017-01-26T07:48:07.673Z,-1.72
2017-01-26T07:49:07.373Z,-1.77
2017-01-26T07:50:07.944Z,-1.69
2017-01-26T07:51:07.442Z,-1.62
2017-01-26T07:52:08.001Z,-1.60
2017-01-26T07:53:07.455Z,-1.95
2017-01-26T07:54:07.978Z,-1.82
2017-01-26T07:55:07.478Z,-1.57
2017-01-26T07:56:08.162Z,-1.83
2017-01-26T07:57:07.710Z,-1.86
2017-01-26T07:58:07.493Z,-1.72
2017-01-26T07:59:07.989Z,-1.61
2017-01-26T08:00:07.530Z,-1.82
2017-01-26T08:01:08.085Z,-1.66
2017-01-26T08:02:08.936Z,-1.59
2017-01-26T08:06:08.294Z,-2.00
2017-01-26T08:08:08.343Z,-1.63
2017-01-26T08:10:08.302Z,-1.82
2017-01-26T08:11:08.512Z,-1.99
2017-01-26T08:13:08.726Z,-1.65
2017-01-26T08:14:07.762Z,-1.77
2017-01-26T08:15:07.517Z,-1.77
2017-01-26T08:17:09.951Z,-1.82
2017-01-26T08:19:08.280Z,-1.63
2017-01-26T08:20:08.682Z,-1.74
2017-01-26T08:23:18.033Z,-1.51
2017-01-26T08:25:09.188Z,-1.74
2017-01-26T08:26:08.565Z,-1.58
2017-01-26T08:27:08.236Z,-1.65
2017-01-26T08:28:07.800Z,-1.81
2017-01-26T08:29:08.317Z,-1.65
2017-01-26T08:30:07.876Z,-1.60
2017-01-26T08:32:09.025Z,-1.48
2017-01-26T08:33:08.725Z,-1.62
2017-01-26T08:34:07.893Z,-1.82
2017-01-26T08:35:08.795Z,-1.59
2017-01-26T08:36:17.270Z,-1.67
2017-01-26T08:38:08.934Z,-1.62
2017-01-26T08:39:08.093Z,-1.95
2017-01-26T08:40:08.233Z,-1.70
2017-01-26T08:41:08.370Z,-1.91
2017-01-26T08:42:08.121Z,-1.92
2017-01-26T08:43:08.102Z,-1.83
2017-01-26T08:44:08.134Z,-1.87
2017-01-26T08:45:08.158Z,-1.83
2017-01-26T08:46:08.063Z,-2.07
2017-01-26T08:47:07.972Z,-1.88
2017-01-26T08:48:08.238Z,-1.98
2017-01-26T08:49:08.216Z,-1.91
2017-01-26T08:50:08.871Z,-1.66
2017-01-26T08:51:08.048Z,-1.62
2017-01-26T08:52:08.214Z,-1.37
2017-01-26T08:53:08.205Z,-1.50
2017-01-26T08:54:08.187Z,-1.32
2017-01-26T08:55:08.152Z,-1.41
2017-01-26T08:56:08.134Z,-1.51
2017-01-26T08:57:08.598Z,-1.65
2017-01-26T08:58:07.590Z,-1.74
2017-01-26T08:59:07.486Z,-1.94
2017-01-26T09:00:08.521Z,-1.73
2017-01-26T09:01:08.544Z,-1.61
2017-01-26T09:02:08.462Z,-1.73
2017-01-26T09:03:08.555Z,-1.77
2017-01-26T09:04:08.407Z,-1.45
2017-01-26T09:05:08.251Z,-1.34
2017-01-26T09:06:08.384Z,-1.48
2017-01-26T09:07:08.362Z,-1.70
2017-01-26T09:08:08.395Z,-1.38
2017-01-26T09:09:08.390Z,-1.38
2017-01-26T09:10:08.463Z,-1.27
2017-01-26T09:11:08.503Z,-1.30
2017-01-26T09:12:08.364Z,-1.33
2017-01-26T09:13:08.393Z,-1.32
2017-01-26T09:14:08.321Z,-1.61
2017-01-26T09:15:08.432Z,-1.81
2017-01-26T09:16:08.375Z,-1.65
2017-01-26T09:17:08.524Z,-1.66
2017-01-26T09:18:08.544Z,-1.59
2017-01-26T09:19:07.623Z,-1.70
2017-01-26T09:20:07.831Z,-1.59
2017-01-26T09:21:08.045Z,-1.58
2017-01-26T09:22:08.029Z,-1.55
2017-01-26T09:23:08.243Z,-1.56
2017-01-26T09:24:07.934Z,-1.67
2017-01-26T09:25:08.392Z,-1.76
2017-01-26T09:26:08.415Z,-1.40
2017-01-26T09:27:08.402Z,-1.32
2017-01-26T09:28:08.368Z,-1.36
2017-01-26T09:29:08.379Z,-1.20
2017-01-26T09:30:08.452Z,-1.21
2017-01-26T09:31:08.603Z,-1.22
2017-01-26T09:32:08.267Z,-1.37
2017-01-26T09:33:08.284Z,-1.35
2017-01-26T09:34:08.725Z,-1.34
2017-01-26T09:35:08.292Z,-1.44
2017-01-26T09:36:08.277Z,-1.22
2017-01-26T09:38:08.983Z,-1.34
2017-01-26T09:39:17.494Z,-1.11
2017-01-26T09:40:08.503Z,-1.32
2017-01-26T09:41:08.560Z,-1.04
2017-01-26T09:42:08.722Z,-0.92
2017-01-26T09:43:08.075Z,-1.59
2017-01-26T09:44:08.330Z,-1.12
2017-01-26T09:45:08.451Z,-1.14
2017-01-26T09:46:08.594Z,-1.25
2017-01-26T09:47:08.284Z,-1.61
2017-01-26T09:48:08.727Z,-1.32
2017-01-26T09:49:08.134Z,-1.09
2017-01-26T09:50:08.222Z,-1.14
2017-01-26T09:51:08.240Z,-1.27
2017-01-26T09:52:08.148Z,-1.31
2017-01-26T09:53:08.080Z,-1.51
2017-01-26T09:54:08.489Z,-1.36
2017-01-26T09:55:08.706Z,-1.44
2017-01-26T09:56:08.206Z,-1.22
2017-01-26T09:57:08.532Z,-0.94
2017-01-26T09:58:08.834Z,-0.85
2017-01-26T09:59:08.314Z,-1.20
2017-01-26T10:00:08.657Z,-1.05
2017-01-26T10:01:08.269Z,-1.18
2017-01-26T10:02:08.712Z,-1.12
2017-01-26T10:03:08.512Z,-1.04
2017-01-26T10:04:08.736Z,-1.15
2017-01-26T10:05:08.127Z,-1.08
2017-01-26T10:06:08.239Z,-1.10
2017-01-26T10:07:08.297Z,-1.05
2017-01-26T10:08:08.442Z,-0.90
2017-01-26T10:09:08.501Z,-0.84
2017-01-26T10:10:08.613Z,-0.79
2017-01-26T10:11:07.975Z,-0.94
2017-01-26T10:12:08.241Z,-1.08
2017-01-26T10:13:08.334Z,-1.07
2017-01-26T10:14:08.356Z,-1.05
2017-01-26T10:15:08.540Z,-0.99
2017-01-26T10:16:08.614Z,-1.02
2017-01-26T10:17:08.140Z,-0.87
2017-01-26T10:18:08.262Z,-0.55
2017-01-26T10:19:08.414Z,-0.94
2017-01-26T10:20:08.692Z,-0.75
2017-01-26T10:21:07.631Z,-0.60
2017-01-26T10:22:08.780Z,-0.72
2017-01-26T10:23:08.014Z,-0.47
2017-01-26T10:24:08.020Z,-0.61
2017-01-26T10:25:08.325Z,-0.57
2017-01-26T10:26:08.382Z,-0.69
2017-01-26T10:27:08.814Z,-0.82
2017-01-26T10:28:08.254Z,-0.67
2017-01-26T10:29:08.310Z,-0.84
2017-01-26T10:30:08.235Z,-0.74
2017-01-26T10:31:08.294Z,-0.69
2017-01-26T10:32:08.359Z,-0.80
2017-01-26T10:33:08.321Z,-0.73
2017-01-26T10:34:08.350Z,-0.63
2017-01-26T10:35:08.479Z,-0.78
2017-01-26T10:36:08.351Z,-0.78
2017-01-26T10:37:08.274Z,-0.52
2017-01-26T10:38:08.421Z,-0.81
2017-01-26T10:39:08.441Z,-0.66
2017-01-26T10:40:08.540Z,-0.74
2017-01-26T10:41:08.453Z,-0.80
2017-01-26T10:42:08.491Z,-0.63
2017-01-26T10:43:08.504Z,-0.64
2017-01-26T10:44:08.469Z,-0.98
2017-01-26T10:45:08.424Z,-0.73
2017-01-26T10:46:08.393Z,-0.87
2017-01-26T10:47:08.457Z,-1.01
2017-01-26T10:48:08.993Z,-0.79
2017-01-26T10:49:07.928Z,-0.96
2017-01-26T10:50:08.163Z,-0.97
2017-01-26T10:51:08.148Z,-0.78
2017-01-26T10:52:08.060Z,-0.78
2017-01-26T10:53:08.128Z,-0.75
2017-01-26T10:54:08.176Z,-0.76
2017-01-26T10:55:08.397Z,-0.89
2017-01-26T10:56:08.511Z,-0.77
2017-01-26T10:57:08.305Z,-0.54
2017-01-26T10:58:27.799Z,-0.68
2017-01-26T10:59:08.011Z,-0.88
2017-01-26T11:00:07.923Z,-0.89
2017-01-26T11:01:07.955Z,-0.86
2017-01-26T11:02:08.015Z,-0.83
2017-01-26T11:03:07.919Z,-0.73
2017-01-26T11:04:07.840Z,-0.64
2017-01-26T11:05:08.039Z,-0.95
2017-01-26T11:06:08.246Z,-0.56
2017-01-26T11:07:08.145Z,-0.64
2017-01-26T11:08:08.356Z,-0.62
2017-01-26T11:10:08.993Z,-0.74
2017-01-26T11:11:11.843Z,-0.59
2017-01-26T11:12:08.387Z,-0.44
2017-01-26T11:13:08.832Z,-0.34
2017-01-26T11:14:07.552Z,-0.48
2017-01-26T11:15:07.829Z,-0.35
2017-01-26T11:16:07.747Z,-0.49
2017-01-26T11:17:08.226Z,-0.36
2017-01-26T11:18:08.658Z,-0.36
2017-01-26T11:19:07.774Z,-0.26
2017-01-26T11:20:17.277Z,-0.31
2017-01-26T11:21:08.256Z,-0.62
2017-01-26T11:22:17.675Z,-0.64
2017-01-26T11:23:08.061Z,-0.39
2017-01-26T11:24:08.239Z,-0.39
2017-01-26T11:25:08.626Z,-0.14
2017-01-26T11:26:07.853Z,-0.09
2017-01-26T11:27:08.197Z,-0.27
2017-01-26T11:28:08.180Z,-0.39
2017-01-26T11:29:08.418Z,-0.21
2017-01-26T11:30:08.620Z,-0.13
2017-01-26T11:31:07.958Z,-0.22
2017-01-26T11:32:08.148Z,-0.26
2017-01-26T11:33:08.608Z,-0.55
2017-01-26T11:34:08.164Z,-0.60
2017-01-26T11:35:08.360Z,-0.43
2017-01-26T11:36:08.476Z,-0.29
2017-01-26T11:37:08.488Z,0.08
2017-01-26T11:38:08.432Z,0.14
2017-01-26T11:39:08.543Z,0.05
2017-01-26T11:40:07.930Z,-0.07
2017-01-26T11:41:07.931Z,0.03
2017-01-26T11:42:08.178Z,-0.13
2017-01-26T11:43:08.596Z,-0.24
2017-01-26T11:45:08.282Z,-0.52
2017-01-26T11:46:08.288Z,-0.45
2017-01-26T11:47:08.412Z,-0.47
2017-01-26T11:48:08.443Z,-0.53
2017-01-26T11:49:08.433Z,-0.78
2017-01-26T11:50:08.387Z,-0.74
2017-01-26T11:51:08.696Z,-0.47
2017-01-26T11:52:07.982Z,-0.59
2017-01-26T11:53:08.150Z,-0.40
2017-01-26T11:54:08.545Z,-0.46
2017-01-26T11:55:08.573Z,-0.33
2017-01-26T11:56:08.727Z,-0.68
2017-01-26T11:57:08.068Z,-0.52
2017-01-26T11:58:08.065Z,-0.56
2017-01-26T11:59:08.381Z,-0.45
2017-01-26T12:00:08.585Z,-0.56
2017-01-26T12:01:08.259Z,-0.47
2017-01-26T12:02:08.515Z,-0.43
2017-01-26T12:03:08.500Z,-0.27
2017-01-26T12:04:08.446Z,-0.25
2017-01-26T12:05:08.397Z,-0.29
2017-01-26T12:06:08.385Z,-0.16
2017-01-26T12:07:08.544Z,-0.23
2017-01-26T12:08:08.455Z,-0.25
2017-01-26T12:09:07.999Z,-0.31
2017-01-26T12:10:08.045Z,-0.40
2017-01-26T12:11:08.329Z,-0.21
2017-01-26T12:12:08.245Z,-0.14
2017-01-26T12:13:08.543Z,-0.24
2017-01-26T12:14:08.551Z,-0.12
2017-01-26T12:15:08.587Z,0.10
2017-01-26T12:16:07.777Z,0.27
2017-01-26T12:17:08.376Z,0.18
2017-01-26T12:18:08.307Z,0.13
2017-01-26T12:19:08.236Z,-0.10
2017-01-26T12:20:08.274Z,-0.11
2017-01-26T12:21:08.233Z,0.01
2017-01-26T12:22:08.223Z,-0.23
2017-01-26T12:23:08.467Z,-0.22
2017-01-26T12:24:08.545Z,-0.09
2017-01-26T12:25:08.567Z,0.25
2017-01-26T12:26:08.560Z,-0.04
2017-01-26T12:27:08.723Z,0.11
2017-01-26T12:28:08.010Z,-0.03
2017-01-26T12:29:08.207Z,0.01
2017-01-26T12:30:08.306Z,-0.02
2017-01-26T12:31:08.426Z,0.08
2017-01-26T12:32:08.502Z,0.19
2017-01-26T12:33:08.579Z,0.40
2017-01-26T12:34:08.611Z,0.48
2017-01-26T12:35:07.960Z,0.30
2017-01-26T12:36:08.181Z,0.35
2017-01-26T12:37:08.229Z,0.34
2017-01-26T12:38:08.347Z,0.37
2017-01-26T12:39:08.294Z,0.54
2017-01-26T12:40:08.230Z,0.37
2017-01-26T12:41:08.451Z,0.39
2017-01-26T12:42:08.572Z,0.11
2017-01-26T12:43:08.253Z,0.26
2017-01-26T12:44:08.264Z,0.26
2017-01-26T12:45:08.230Z,0.33
2017-01-26T12:46:08.253Z,0.37
2017-01-26T12:47:08.305Z,0.42
2017-01-26T12:48:08.276Z,0.42
2017-01-26T12:49:08.314Z,0.49
2017-01-26T12:50:08.225Z,0.42
2017-01-26T12:51:08.372Z,0.30
2017-01-26T12:52:08.334Z,0.27
2017-01-26T12:53:08.295Z,0.25
2017-01-26T12:54:08.236Z,0.14
2017-01-26T12:55:08.217Z,0.36
2017-01-26T12:56:07.873Z,0.32
2017-01-26T12:57:08.306Z,0.57
2017-01-26T12:58:08.799Z,0.69
2017-01-26T12:59:08.203Z,0.78
2017-01-26T13:00:08.419Z,0.70
2017-01-26T13:01:08.444Z,0.62
2017-01-26T13:02:08.611Z,0.64
2017-01-26T13:03:08.205Z,0.68
2017-01-26T13:04:08.603Z,0.84
2017-01-26T13:05:08.182Z,0.63
2017-01-26T13:06:08.425Z,0.61
2017-01-26T13:07:08.354Z,0.63
2017-01-26T13:08:08.303Z,0.62
2017-01-26T13:09:08.548Z,0.65
2017-01-26T13:10:08.839Z,0.56
2017-01-26T13:11:07.847Z,0.90
2017-01-26T13:12:08.466Z,0.74
2017-01-26T13:13:08.584Z,0.76
2017-01-26T13:14:08.172Z,0.90